West Bend, WI

6:28 PM CDT on April 26, 2015 (GMT -0500)
West Bend Municipal | | Change Station
CLOSE
Current Station
Airport
Location: West Bend,
Elevation: 886 ft
Nearby Weather Stations

Elev 886 ft 43.42 °N, 88.13 °W | Updated 18 minutes ago

Clear
Clear
50 °F
Feels Like 50 °F
N
8
Wind Variable Wind from East

Today
High -- | Low -- °F
--% Chance of Precip.
Yesterday
High -- | Low -- °F
Precip. -- in
5:53 AM 7:48 PM
First Quarter, 59% visible
Pressure 30.02 in
Visibility 10.0 miles
Clouds Clear
Dew Point 23 °F
Humidity 35%
Rainfall 0.00 in
Snow Depth Not available.
UV 1 out of 12
Pollen 10.70 out of 12
Air Quality Not available.
Flu Activity Local Activity
METAR KETB 262310Z AUTO 08007KT 10SM CLR 10/M05 A3002 RMK AO2

More Conditions Fewer Conditions

Pressure 30.02 in
Visibility 10.0 miles
Clouds Clear
Dew Point 23 °F
Humidity 35%
Rainfall 0.00 in
Snow Depth Not available.
UV 1 out of 12
Pollen 10.70 out of 12
Air Quality Not available.
Flu Activity Local Activity
METAR KETB 262310Z AUTO 08007KT 10SM CLR 10/M05 A3002 RMK AO2

More Conditions Fewer Conditions

The full scope of the disaster following a powerful 7.8-magnitude earthquake in Nepal may not come into view for days, but global charities are already sending emergency aid. Click to see how you can help.

10-Day Weather Forecast

Almanac

Astronomy

Apr. 26, 2015 Rise Set
Actual Time
Civil Twilight
Nautical Twilight
Astronomical Twilight
Moon
Length of Visible Light
Length of Day
Tomorrow will be .
, % of the Moon is Illuminated

Today's Extremes

State Highs State Lows

Community

WunderPhotos

Upload Photos

1,817,159 photos uploaded!

WunderBlogs® & News

Nearby

Air Quality

  Air Quality AQ Index Pollutant
Not available.

Snow Depth

Station Depth Elevation

Earthquake Activity

City Distance Mag. Time & Date
Minimum magnitude displayed is 2.5.

Coastal Water Temperatures

Place Temperature

Stations

Nearby Weather Stations

Station Location Temp. Windchill Dew Point Humidity Wind Precip. Elev Updated Type